sensor_id;sensor_type;location;lat;lon;timestamp;temperature;humidity
30186;DHT22;31152;49.190;8.122;2022-10-23T00:01:58;12.70;99.90
30186;DHT22;31152;49.190;8.122;2022-10-23T00:04:27;12.70;99.90
30186;DHT22;31152;49.190;8.122;2022-10-23T00:06:57;12.70;99.90
30186;DHT22;31152;49.190;8.122;2022-10-23T00:09:24;12.70;99.90
30186;DHT22;31152;49.190;8.122;2022-10-23T00:11:51;12.60;99.90
30186;DHT22;31152;49.190;8.122;2022-10-23T00:14:21;12.60;99.90
30186;DHT22;31152;49.190;8.122;2022-10-23T00:16:50;12.60;99.90
30186;DHT22;31152;49.190;8.122;2022-10-23T00:19:17;12.60;99.90
30186;DHT22;31152;49.190;8.122;2022-10-23T00:21:44;12.50;99.90
30186;DHT22;31152;49.190;8.122;2022-10-23T00:24:10;12.50;99.90
30186;DHT22;31152;49.190;8.122;2022-10-23T00:26:40;12.50;99.90
30186;DHT22;31152;49.190;8.122;2022-10-23T00:29:07;12.40;99.90
30186;DHT22;31152;49.190;8.122;2022-10-23T00:31:37;12.40;99.90
30186;DHT22;31152;49.190;8.122;2022-10-23T00:34:03;12.40;99.90
30186;DHT22;31152;49.190;8.122;2022-10-23T00:36:33;12.40;99.90
30186;DHT22;31152;49.190;8.122;2022-10-23T00:39:00;12.40;99.90
30186;DHT22;31152;49.190;8.122;2022-10-23T00:41:28;12.40;99.90
30186;DHT22;31152;49.190;8.122;2022-10-23T00:44:10;12.30;99.90
30186;DHT22;31152;49.190;8.122;2022-10-23T00:46:56;12.30;99.90
30186;DHT22;31152;49.190;8.122;2022-10-23T00:49:23;12.30;99.90
30186;DHT22;31152;49.190;8.122;2022-10-23T00:51:54;12.30;99.90
30186;DHT22;31152;49.190;8.122;2022-10-23T00:54:24;12.30;99.90
30186;DHT22;31152;49.190;8.122;2022-10-23T00:56:57;12.30;99.90
30186;DHT22;31152;49.190;8.122;2022-10-23T00:59:25;12.30;99.90
30186;DHT22;31152;49.190;8.122;2022-10-23T01:01:52;12.30;99.90
30186;DHT22;31152;49.190;8.122;2022-10-23T01:04:25;12.20;99.90
30186;DHT22;31152;49.190;8.122;2022-10-23T01:12:37;12.30;99.90
30186;DHT22;31152;49.190;8.122;2022-10-23T01:15:18;12.20;99.90
30186;DHT22;31152;49.190;8.122;2022-10-23T01:18:11;12.20;99.90
30186;DHT22;31152;49.190;8.122;2022-10-23T01:20:45;12.20;99.90
30186;DHT22;31152;49.190;8.122;2022-10-23T01:31:16;12.10;99.90
30186;DHT22;31152;49.190;8.122;2022-10-23T01:33:49;12.10;99.90
30186;DHT22;31152;49.190;8.122;2022-10-23T01:36:23;12.10;99.90
30186;DHT22;31152;49.190;8.122;2022-10-23T01:39:06;12.10;99.90
30186;DHT22;31152;49.190;8.122;2022-10-23T01:41:47;12.10;99.90
30186;DHT22;31152;49.190;8.122;2022-10-23T01:44:23;12.10;99.90
30186;DHT22;31152;49.190;8.122;2022-10-23T01:46:53;12.10;99.90
30186;DHT22;31152;49.190;8.122;2022-10-23T01:49:21;12.10;99.90
30186;DHT22;31152;49.190;8.122;2022-10-23T01:51:54;12.10;99.90
30186;DHT22;31152;49.190;8.122;2022-10-23T01:54:25;12.10;99.90
30186;DHT22;31152;49.190;8.122;2022-10-23T01:56:55;12.20;99.90
30186;DHT22;31152;49.190;8.122;2022-10-23T01:59:28;12.20;99.90
30186;DHT22;31152;49.190;8.122;2022-10-23T02:01:57;12.20;99.90
30186;DHT22;31152;49.190;8.122;2022-10-23T02:04:30;12.20;99.90
30186;DHT22;31152;49.190;8.122;2022-10-23T02:06:58;12.20;99.90
30186;DHT22;31152;49.190;8.122;2022-10-23T02:09:25;12.20;99.90
30186;DHT22;31152;49.190;8.122;2022-10-23T02:12:13;12.20;99.90
30186;DHT22;31152;49.190;8.122;2022-10-23T02:23:05;12.30;99.90
30186;DHT22;31152;49.190;8.122;2022-10-23T02:25:47;12.20;99.90
30186;DHT22;31152;49.190;8.122;2022-10-23T02:28:21;12.20;99.90
30186;DHT22;31152;49.190;8.122;2022-10-23T02:30:52;12.20;99.90
30186;DHT22;31152;49.190;8.122;2022-10-23T02:33:22;12.20;99.90
30186;DHT22;31152;49.190;8.122;2022-10-23T02:35:53;12.20;99.90
30186;DHT22;31152;49.190;8.122;2022-10-23T02:38:35;12.20;99.90
30186;DHT22;31152;49.190;8.122;2022-10-23T02:41:12;12.20;99.90
30186;DHT22;31152;49.190;8.122;2022-10-23T02:46:52;12.10;99.90
30186;DHT22;31152;49.190;8.122;2022-10-23T02:52:11;12.10;99.90
30186;DHT22;31152;49.190;8.122;2022-10-23T02:55:16;12.10;99.90
30186;DHT22;31152;49.190;8.122;2022-10-23T02:58:08;12.00;99.90
30186;DHT22;31152;49.190;8.122;2022-10-23T03:00:37;12.00;99.90
30186;DHT22;31152;49.190;8.122;2022-10-23T03:03:14;11.90;99.90
30186;DHT22;31152;49.190;8.122;2022-10-23T03:05:43;11.90;99.90
30186;DHT22;31152;49.190;8.122;2022-10-23T03:08:12;11.90;99.90
30186;DHT22;31152;49.190;8.122;2022-10-23T03:10:40;11.90;99.90
30186;DHT22;31152;49.190;8.122;2022-10-23T03:13:09;11.90;99.90
30186;DHT22;31152;49.190;8.122;2022-10-23T03:15:35;11.90;99.90
30186;DHT22;31152;49.190;8.122;2022-10-23T03:18:02;11.80;99.90
30186;DHT22;31152;49.190;8.122;2022-10-23T03:20:29;11.90;99.90
30186;DHT22;31152;49.190;8.122;2022-10-23T03:22:56;11.90;99.90
30186;DHT22;31152;49.190;8.122;2022-10-23T03:25:22;11.90;99.90
30186;DHT22;31152;49.190;8.122;2022-10-23T03:27:49;11.90;99.90
30186;DHT22;31152;49.190;8.122;2022-10-23T03:30:16;11.90;99.90
30186;DHT22;31152;49.190;8.122;2022-10-23T03:32:42;11.90;99.90
30186;DHT22;31152;49.190;8.122;2022-10-23T03:35:12;11.90;99.90
30186;DHT22;31152;49.190;8.122;2022-10-23T03:37:38;11.90;99.90
30186;DHT22;31152;49.190;8.122;2022-10-23T03:40:06;11.90;99.90
30186;DHT22;31152;49.190;8.122;2022-10-23T03:42:33;11.90;99.90
30186;DHT22;31152;49.190;8.122;2022-10-23T03:45:02;11.90;99.90
30186;DHT22;31152;49.190;8.122;2022-10-23T03:47:28;11.90;99.90
30186;DHT22;31152;49.190;8.122;2022-10-23T03:49:56;11.90;99.90
30186;DHT22;31152;49.190;8.122;2022-10-23T03:52:24;11.90;99.90
30186;DHT22;31152;49.190;8.122;2022-10-23T03:54:53;11.90;99.90
30186;DHT22;31152;49.190;8.122;2022-10-23T03:57:20;11.90;99.90
30186;DHT22;31152;49.190;8.122;2022-10-23T03:59:47;11.90;99.90
30186;DHT22;31152;49.190;8.122;2022-10-23T04:02:13;11.90;99.90
30186;DHT22;31152;49.190;8.122;2022-10-23T04:04:40;11.90;99.90
30186;DHT22;31152;49.190;8.122;2022-10-23T04:07:07;11.90;99.90
30186;DHT22;31152;49.190;8.122;2022-10-23T04:09:33;11.90;99.90
30186;DHT22;31152;49.190;8.122;2022-10-23T04:12:00;12.00;99.90
30186;DHT22;31152;49.190;8.122;2022-10-23T04:14:27;12.00;99.90
30186;DHT22;31152;49.190;8.122;2022-10-23T04:16:56;12.00;99.90
30186;DHT22;31152;49.190;8.122;2022-10-23T04:19:22;12.00;99.90
30186;DHT22;31152;49.190;8.122;2022-10-23T04:21:53;12.00;99.90
30186;DHT22;31152;49.190;8.122;2022-10-23T04:24:20;11.90;99.90
30186;DHT22;31152;49.190;8.122;2022-10-23T04:26:51;11.90;99.90
30186;DHT22;31152;49.190;8.122;2022-10-23T04:29:18;11.90;99.90
30186;DHT22;31152;49.190;8.122;2022-10-23T04:31:48;11.90;99.90
30186;DHT22;31152;49.190;8.122;2022-10-23T04:34:17;11.90;99.90
30186;DHT22;31152;49.190;8.122;2022-10-23T04:36:44;11.90;99.90
30186;DHT22;31152;49.190;8.122;2022-10-23T04:39:10;11.90;99.90
30186;DHT22;31152;49.190;8.122;2022-10-23T04:41:38;11.90;99.90
30186;DHT22;31152;49.190;8.122;2022-10-23T04:44:05;11.90;99.90
30186;DHT22;31152;49.190;8.122;2022-10-23T04:46:31;11.90;99.90
30186;DHT22;31152;49.190;8.122;2022-10-23T04:48:58;11.90;99.90
30186;DHT22;31152;49.190;8.122;2022-10-23T04:51:30;11.90;99.90
30186;DHT22;31152;49.190;8.122;2022-10-23T04:53:57;12.00;99.90
30186;DHT22;31152;49.190;8.122;2022-10-23T04:56:25;12.00;99.90
30186;DHT22;31152;49.190;8.122;2022-10-23T04:58:52;12.00;99.90
30186;DHT22;31152;49.190;8.122;2022-10-23T05:01:20;12.00;99.90
30186;DHT22;31152;49.190;8.122;2022-10-23T05:03:49;12.00;99.90
30186;DHT22;31152;49.190;8.122;2022-10-23T05:06:18;11.90;99.90
30186;DHT22;31152;49.190;8.122;2022-10-23T05:08:44;11.90;99.90
30186;DHT22;31152;49.190;8.122;2022-10-23T05:11:11;11.90;99.90
30186;DHT22;31152;49.190;8.122;2022-10-23T05:13:38;11.90;99.90
30186;DHT22;31152;49.190;8.122;2022-10-23T05:16:05;11.90;99.90
30186;DHT22;31152;49.190;8.122;2022-10-23T05:18:44;11.90;99.90
30186;DHT22;31152;49.190;8.122;2022-10-23T05:21:15;11.90;99.90
30186;DHT22;31152;49.190;8.122;2022-10-23T05:23:45;11.90;99.90
30186;DHT22;31152;49.190;8.122;2022-10-23T05:26:12;11.90;99.90
30186;DHT22;31152;49.190;8.122;2022-10-23T05:28:42;11.90;99.90
30186;DHT22;31152;49.190;8.122;2022-10-23T05:31:08;11.90;99.90
30186;DHT22;31152;49.190;8.122;2022-10-23T05:33:36;11.90;99.90
30186;DHT22;31152;49.190;8.122;2022-10-23T05:36:03;11.90;99.90
30186;DHT22;31152;49.190;8.122;2022-10-23T05:38:34;11.90;99.90
30186;DHT22;31152;49.190;8.122;2022-10-23T05:41:01;11.90;99.90
30186;DHT22;31152;49.190;8.122;2022-10-23T05:43:28;11.90;99.90
30186;DHT22;31152;49.190;8.122;2022-10-23T05:45:57;11.90;99.90
30186;DHT22;31152;49.190;8.122;2022-10-23T05:48:26;11.80;99.90
30186;DHT22;31152;49.190;8.122;2022-10-23T05:51:07;11.80;99.90
30186;DHT22;31152;49.190;8.122;2022-10-23T05:53:35;11.70;99.90
30186;DHT22;31152;49.190;8.122;2022-10-23T05:56:08;11.70;99.90
30186;DHT22;31152;49.190;8.122;2022-10-23T05:58:37;11.70;99.90
30186;DHT22;31152;49.190;8.122;2022-10-23T06:01:09;11.70;99.90
30186;DHT22;31152;49.190;8.122;2022-10-23T06:03:39;11.70;99.90
30186;DHT22;31152;49.190;8.122;2022-10-23T06:06:08;11.70;99.90
30186;DHT22;31152;49.190;8.122;2022-10-23T06:08:35;11.60;99.90
30186;DHT22;31152;49.190;8.122;2022-10-23T06:11:06;11.60;99.90
30186;DHT22;31152;49.190;8.122;2022-10-23T06:13:36;11.60;99.90
30186;DHT22;31152;49.190;8.122;2022-10-23T06:16:30;11.60;99.90
30186;DHT22;31152;49.190;8.122;2022-10-23T06:18:56;11.60;99.90
30186;DHT22;31152;49.190;8.122;2022-10-23T06:21:23;11.60;99.90
30186;DHT22;31152;49.190;8.122;2022-10-23T06:23:53;11.60;99.90
30186;DHT22;31152;49.190;8.122;2022-10-23T06:26:20;11.60;99.90
30186;DHT22;31152;49.190;8.122;2022-10-23T06:28:47;11.60;99.90
30186;DHT22;31152;49.190;8.122;2022-10-23T06:31:15;11.60;99.90
30186;DHT22;31152;49.190;8.122;2022-10-23T06:33:41;11.60;99.90
30186;DHT22;31152;49.190;8.122;2022-10-23T06:36:08;11.60;99.90
30186;DHT22;31152;49.190;8.122;2022-10-23T06:38:37;11.60;99.90
30186;DHT22;31152;49.190;8.122;2022-10-23T06:41:10;11.70;99.90
30186;DHT22;31152;49.190;8.122;2022-10-23T06:43:37;11.70;99.90
30186;DHT22;31152;49.190;8.122;2022-10-23T06:46:05;11.70;99.90
30186;DHT22;31152;49.190;8.122;2022-10-23T06:48:32;11.70;99.90
30186;DHT22;31152;49.190;8.122;2022-10-23T06:51:02;11.80;99.90
30186;DHT22;31152;49.190;8.122;2022-10-23T06:53:29;11.80;99.90
30186;DHT22;31152;49.190;8.122;2022-10-23T06:56:02;11.80;99.90
30186;DHT22;31152;49.190;8.122;2022-10-23T06:58:29;11.80;99.90
30186;DHT22;31152;49.190;8.122;2022-10-23T07:00:59;11.80;99.90
30186;DHT22;31152;49.190;8.122;2022-10-23T07:03:27;11.80;99.90
30186;DHT22;31152;49.190;8.122;2022-10-23T07:05:54;11.90;99.90
30186;DHT22;31152;49.190;8.122;2022-10-23T07:08:21;11.90;99.90
30186;DHT22;31152;49.190;8.122;2022-10-23T07:10:48;11.90;99.90
30186;DHT22;31152;49.190;8.122;2022-10-23T07:13:14;11.90;99.90
30186;DHT22;31152;49.190;8.122;2022-10-23T07:15:43;12.00;99.90
30186;DHT22;31152;49.190;8.122;2022-10-23T07:18:10;12.00;99.90
30186;DHT22;31152;49.190;8.122;2022-10-23T07:20:42;12.00;99.90
30186;DHT22;31152;49.190;8.122;2022-10-23T07:23:12;12.10;99.90
30186;DHT22;31152;49.190;8.122;2022-10-23T07:25:39;12.20;99.90
30186;DHT22;31152;49.190;8.122;2022-10-23T07:28:05;12.20;99.90
30186;DHT22;31152;49.190;8.122;2022-10-23T07:30:35;12.30;99.90
30186;DHT22;31152;49.190;8.122;2022-10-23T07:33:01;12.30;99.90
30186;DHT22;31152;49.190;8.122;2022-10-23T07:35:30;12.30;99.90
30186;DHT22;31152;49.190;8.122;2022-10-23T07:38:02;12.30;99.90
30186;DHT22;31152;49.190;8.122;2022-10-23T07:40:29;12.40;99.90
30186;DHT22;31152;49.190;8.122;2022-10-23T07:42:55;12.40;99.90
30186;DHT22;31152;49.190;8.122;2022-10-23T07:45:22;12.40;99.90
30186;DHT22;31152;49.190;8.122;2022-10-23T07:47:51;12.50;99.90
30186;DHT22;31152;49.190;8.122;2022-10-23T07:50:18;12.50;99.90
30186;DHT22;31152;49.190;8.122;2022-10-23T07:52:45;12.60;99.90
30186;DHT22;31152;49.190;8.122;2022-10-23T07:55:15;12.70;99.90
30186;DHT22;31152;49.190;8.122;2022-10-23T07:57:41;12.80;99.90
30186;DHT22;31152;49.190;8.122;2022-10-23T08:00:10;13.00;99.90
30186;DHT22;31152;49.190;8.122;2022-10-23T08:02:37;13.10;99.90
30186;DHT22;31152;49.190;8.122;2022-10-23T08:05:04;13.30;99.90
30186;DHT22;31152;49.190;8.122;2022-10-23T08:07:31;13.50;99.90
30186;DHT22;31152;49.190;8.122;2022-10-23T08:09:57;13.70;99.90
30186;DHT22;31152;49.190;8.122;2022-10-23T08:12:24;14.00;99.90
30186;DHT22;31152;49.190;8.122;2022-10-23T08:14:51;14.10;99.90
30186;DHT22;31152;49.190;8.122;2022-10-23T08:17:18;14.20;99.90
30186;DHT22;31152;49.190;8.122;2022-10-23T08:19:44;14.30;99.90
30186;DHT22;31152;49.190;8.122;2022-10-23T08:22:14;14.40;99.90
30186;DHT22;31152;49.190;8.122;2022-10-23T08:24:41;14.40;99.90
30186;DHT22;31152;49.190;8.122;2022-10-23T08:27:07;14.50;99.90
30186;DHT22;31152;49.190;8.122;2022-10-23T08:29:36;14.60;99.90
30186;DHT22;31152;49.190;8.122;2022-10-23T08:32:03;14.70;99.90
30186;DHT22;31152;49.190;8.122;2022-10-23T08:34:30;14.80;99.90
30186;DHT22;31152;49.190;8.122;2022-10-23T08:36:57;14.90;99.90
30186;DHT22;31152;49.190;8.122;2022-10-23T08:39:23;15.10;99.90
30186;DHT22;31152;49.190;8.122;2022-10-23T08:41:51;15.30;99.90
30186;DHT22;31152;49.190;8.122;2022-10-23T08:44:39;15.50;99.90
30186;DHT22;31152;49.190;8.122;2022-10-23T08:47:13;15.80;99.90
30186;DHT22;31152;49.190;8.122;2022-10-23T08:49:56;16.20;99.90
30186;DHT22;31152;49.190;8.122;2022-10-23T08:52:36;16.40;99.90
30186;DHT22;31152;49.190;8.122;2022-10-23T08:55:34;16.60;99.90
30186;DHT22;31152;49.190;8.122;2022-10-23T08:58:14;16.80;99.90
30186;DHT22;31152;49.190;8.122;2022-10-23T09:00:42;17.00;99.90
30186;DHT22;31152;49.190;8.122;2022-10-23T09:03:11;17.10;99.90
30186;DHT22;31152;49.190;8.122;2022-10-23T09:11:36;17.80;99.90
30186;DHT22;31152;49.190;8.122;2022-10-23T09:17:15;18.30;99.90
30186;DHT22;31152;49.190;8.122;2022-10-23T09:19:46;18.50;99.90
30186;DHT22;31152;49.190;8.122;2022-10-23T09:22:13;18.60;99.90
30186;DHT22;31152;49.190;8.122;2022-10-23T09:24:41;18.70;99.90
30186;DHT22;31152;49.190;8.122;2022-10-23T09:27:14;18.70;99.90
30186;DHT22;31152;49.190;8.122;2022-10-23T09:29:53;18.80;99.90
30186;DHT22;31152;49.190;8.122;2022-10-23T09:32:32;18.80;99.90
30186;DHT22;31152;49.190;8.122;2022-10-23T09:34:59;18.90;99.90
30186;DHT22;31152;49.190;8.122;2022-10-23T09:37:30;19.00;99.90
30186;DHT22;31152;49.190;8.122;2022-10-23T09:42:29;18.80;99.90
30186;DHT22;31152;49.190;8.122;2022-10-23T09:44:56;18.70;99.90
30186;DHT22;31152;49.190;8.122;2022-10-23T09:47:25;18.70;99.90
30186;DHT22;31152;49.190;8.122;2022-10-23T09:49:58;18.70;99.90
30186;DHT22;31152;49.190;8.122;2022-10-23T09:52:42;18.70;99.90
30186;DHT22;31152;49.190;8.122;2022-10-23T09:55:25;18.60;99.90
30186;DHT22;31152;49.190;8.122;2022-10-23T09:57:53;18.70;99.90
30186;DHT22;31152;49.190;8.122;2022-10-23T10:00:26;18.80;99.90
30186;DHT22;31152;49.190;8.122;2022-10-23T10:02:59;19.30;99.90
30186;DHT22;31152;49.190;8.122;2022-10-23T10:05:35;20.10;99.90
30186;DHT22;31152;49.190;8.122;2022-10-23T10:10:44;21.10;99.90
30186;DHT22;31152;49.190;8.122;2022-10-23T10:13:38;21.00;99.90
30186;DHT22;31152;49.190;8.122;2022-10-23T10:16:40;20.90;99.90
30186;DHT22;31152;49.190;8.122;2022-10-23T10:25:07;20.70;99.90
30186;DHT22;31152;49.190;8.122;2022-10-23T10:27:41;20.80;99.90
30186;DHT22;31152;49.190;8.122;2022-10-23T10:30:23;21.10;99.90
30186;DHT22;31152;49.190;8.122;2022-10-23T10:50:02;24.90;99.90
30186;DHT22;31152;49.190;8.122;2022-10-23T10:55:38;24.10;99.90
30186;DHT22;31152;49.190;8.122;2022-10-23T10:58:37;23.40;99.90
30186;DHT22;31152;49.190;8.122;2022-10-23T11:01:19;22.80;99.90
30186;DHT22;31152;49.190;8.122;2022-10-23T11:06:56;22.10;99.90
30186;DHT22;31152;49.190;8.122;2022-10-23T11:09:26;22.10;99.90
30186;DHT22;31152;49.190;8.122;2022-10-23T11:11:53;22.20;99.90
30186;DHT22;31152;49.190;8.122;2022-10-23T11:14:31;22.60;99.90
30186;DHT22;31152;49.190;8.122;2022-10-23T11:17:08;23.00;99.90
30186;DHT22;31152;49.190;8.122;2022-10-23T11:19:44;23.70;99.90
30186;DHT22;31152;49.190;8.122;2022-10-23T11:22:36;23.90;99.90
30186;DHT22;31152;49.190;8.122;2022-10-23T11:28:26;24.00;99.90
30186;DHT22;31152;49.190;8.122;2022-10-23T11:36:57;24.90;99.90
30186;DHT22;31152;49.190;8.122;2022-10-23T11:39:29;26.30;98.60
30186;DHT22;31152;49.190;8.122;2022-10-23T11:42:12;27.40;97.20
30186;DHT22;31152;49.190;8.122;2022-10-23T11:44:45;28.60;94.30
30186;DHT22;31152;49.190;8.122;2022-10-23T11:50:11;29.80;89.00
30186;DHT22;31152;49.190;8.122;2022-10-23T11:53:05;30.10;89.90
30186;DHT22;31152;49.190;8.122;2022-10-23T11:55:59;30.90;87.50
30186;DHT22;31152;49.190;8.122;2022-10-23T12:01:33;31.30;79.10
30186;DHT22;31152;49.190;8.122;2022-10-23T12:06:43;30.50;80.60
30186;DHT22;31152;49.190;8.122;2022-10-23T12:14:46;29.00;84.30
30186;DHT22;31152;49.190;8.122;2022-10-23T12:17:28;28.60;85.00
30186;DHT22;31152;49.190;8.122;2022-10-23T12:39:35;27.70;86.90
30186;DHT22;31152;49.190;8.122;2022-10-23T12:42:03;27.50;88.30
30186;DHT22;31152;49.190;8.122;2022-10-23T12:44:30;27.70;88.20
30186;DHT22;31152;49.190;8.122;2022-10-23T12:47:01;28.10;86.40
30186;DHT22;31152;49.190;8.122;2022-10-23T12:49:29;28.90;84.00
30186;DHT22;31152;49.190;8.122;2022-10-23T12:52:04;29.70;80.00
30186;DHT22;31152;49.190;8.122;2022-10-23T12:54:32;30.20;80.10
30186;DHT22;31152;49.190;8.122;2022-10-23T12:57:18;30.90;76.80
30186;DHT22;31152;49.190;8.122;2022-10-23T12:59:47;31.30;75.60
30186;DHT22;31152;49.190;8.122;2022-10-23T13:02:22;31.10;74.00
30186;DHT22;31152;49.190;8.122;2022-10-23T13:04:52;30.60;75.20
30186;DHT22;31152;49.190;8.122;2022-10-23T13:07:23;30.10;76.50
30186;DHT22;31152;49.190;8.122;2022-10-23T13:09:51;29.40;78.50
30186;DHT22;31152;49.190;8.122;2022-10-23T13:12:24;28.60;80.30
30186;DHT22;31152;49.190;8.122;2022-10-23T13:15:01;28.00;82.60
30186;DHT22;31152;49.190;8.122;2022-10-23T13:17:38;27.50;84.30
30186;DHT22;31152;49.190;8.122;2022-10-23T13:20:18;27.20;86.70
30186;DHT22;31152;49.190;8.122;2022-10-23T13:22:52;26.90;88.60
30186;DHT22;31152;49.190;8.122;2022-10-23T13:25:29;26.70;90.20
30186;DHT22;31152;49.190;8.122;2022-10-23T13:31:01;26.30;90.00
30186;DHT22;31152;49.190;8.122;2022-10-23T13:33:35;25.80;90.60
30186;DHT22;31152;49.190;8.122;2022-10-23T13:36:20;25.50;91.40
30186;DHT22;31152;49.190;8.122;2022-10-23T13:38:58;25.10;91.60
30186;DHT22;31152;49.190;8.122;2022-10-23T13:41:37;24.80;92.40
30186;DHT22;31152;49.190;8.122;2022-10-23T13:44:05;24.50;93.30
30186;DHT22;31152;49.190;8.122;2022-10-23T13:46:32;24.20;93.90
30186;DHT22;31152;49.190;8.122;2022-10-23T13:48:59;24.00;94.70
30186;DHT22;31152;49.190;8.122;2022-10-23T13:51:32;23.90;95.10
30186;DHT22;31152;49.190;8.122;2022-10-23T13:54:12;23.60;95.00
30186;DHT22;31152;49.190;8.122;2022-10-23T13:56:40;23.40;96.20
30186;DHT22;31152;49.190;8.122;2022-10-23T13:59:09;23.20;96.80
30186;DHT22;31152;49.190;8.122;2022-10-23T14:01:38;23.10;97.40
30186;DHT22;31152;49.190;8.122;2022-10-23T14:04:08;22.90;97.50
30186;DHT22;31152;49.190;8.122;2022-10-23T14:06:38;22.80;97.90
30186;DHT22;31152;49.190;8.122;2022-10-23T14:09:06;22.60;98.20
30186;DHT22;31152;49.190;8.122;2022-10-23T14:11:33;22.50;98.70
30186;DHT22;31152;49.190;8.122;2022-10-23T14:14:00;22.40;98.80
30186;DHT22;31152;49.190;8.122;2022-10-23T14:16:27;22.30;99.30
30186;DHT22;31152;49.190;8.122;2022-10-23T14:18:55;22.20;99.80
30186;DHT22;31152;49.190;8.122;2022-10-23T14:21:23;22.10;99.90
30186;DHT22;31152;49.190;8.122;2022-10-23T14:23:52;21.90;99.90
30186;DHT22;31152;49.190;8.122;2022-10-23T14:26:24;21.70;99.90
30186;DHT22;31152;49.190;8.122;2022-10-23T14:28:54;21.70;99.90
30186;DHT22;31152;49.190;8.122;2022-10-23T14:31:27;21.80;99.90
30186;DHT22;31152;49.190;8.122;2022-10-23T14:33:56;21.90;99.90
30186;DHT22;31152;49.190;8.122;2022-10-23T14:36:24;22.00;99.90
30186;DHT22;31152;49.190;8.122;2022-10-23T14:38:59;21.80;99.90
30186;DHT22;31152;49.190;8.122;2022-10-23T14:41:26;21.70;99.90
30186;DHT22;31152;49.190;8.122;2022-10-23T14:43:53;21.70;99.90
30186;DHT22;31152;49.190;8.122;2022-10-23T14:46:23;21.50;99.90
30186;DHT22;31152;49.190;8.122;2022-10-23T14:48:51;21.40;99.90
30186;DHT22;31152;49.190;8.122;2022-10-23T14:51:25;21.30;99.90
30186;DHT22;31152;49.190;8.122;2022-10-23T14:53:57;21.10;99.90
30186;DHT22;31152;49.190;8.122;2022-10-23T14:56:31;21.00;99.90
30186;DHT22;31152;49.190;8.122;2022-10-23T14:59:00;20.80;99.90
30186;DHT22;31152;49.190;8.122;2022-10-23T15:01:36;20.80;99.90
30186;DHT22;31152;49.190;8.122;2022-10-23T15:04:15;20.80;99.90
30186;DHT22;31152;49.190;8.122;2022-10-23T15:06:44;20.70;99.90
30186;DHT22;31152;49.190;8.122;2022-10-23T15:09:13;20.60;99.90
30186;DHT22;31152;49.190;8.122;2022-10-23T15:11:40;20.50;99.90
30186;DHT22;31152;49.190;8.122;2022-10-23T15:14:07;20.50;99.90
30186;DHT22;31152;49.190;8.122;2022-10-23T15:16:33;20.60;99.90
30186;DHT22;31152;49.190;8.122;2022-10-23T15:19:08;20.80;99.90
30186;DHT22;31152;49.190;8.122;2022-10-23T15:21:46;21.00;99.90
30186;DHT22;31152;49.190;8.122;2022-10-23T15:24:15;20.90;99.90
30186;DHT22;31152;49.190;8.122;2022-10-23T15:26:42;20.90;99.90
30186;DHT22;31152;49.190;8.122;2022-10-23T15:29:09;20.90;99.90
30186;DHT22;31152;49.190;8.122;2022-10-23T15:34:04;20.80;99.90
30186;DHT22;31152;49.190;8.122;2022-10-23T15:36:34;20.90;99.90
30186;DHT22;31152;49.190;8.122;2022-10-23T15:39:01;20.80;99.90
30186;DHT22;31152;49.190;8.122;2022-10-23T15:41:35;20.80;99.90
30186;DHT22;31152;49.190;8.122;2022-10-23T15:44:03;20.60;99.90
30186;DHT22;31152;49.190;8.122;2022-10-23T15:46:31;20.50;99.90
30186;DHT22;31152;49.190;8.122;2022-10-23T15:48:58;20.30;99.90
30186;DHT22;31152;49.190;8.122;2022-10-23T15:51:25;20.20;99.90
30186;DHT22;31152;49.190;8.122;2022-10-23T15:53:52;20.20;99.90
30186;DHT22;31152;49.190;8.122;2022-10-23T15:56:21;20.10;99.90
30186;DHT22;31152;49.190;8.122;2022-10-23T15:58:48;20.00;99.90
30186;DHT22;31152;49.190;8.122;2022-10-23T16:01:15;19.80;99.90
30186;DHT22;31152;49.190;8.122;2022-10-23T16:03:42;19.70;99.90
30186;DHT22;31152;49.190;8.122;2022-10-23T16:06:11;19.60;99.90
30186;DHT22;31152;49.190;8.122;2022-10-23T16:08:39;19.50;99.90
30186;DHT22;31152;49.190;8.122;2022-10-23T16:11:17;19.40;99.90
30186;DHT22;31152;49.190;8.122;2022-10-23T16:13:44;19.30;99.90
30186;DHT22;31152;49.190;8.122;2022-10-23T16:16:11;19.30;99.90
30186;DHT22;31152;49.190;8.122;2022-10-23T16:18:41;19.20;99.90
30186;DHT22;31152;49.190;8.122;2022-10-23T16:21:17;19.20;99.90
30186;DHT22;31152;49.190;8.122;2022-10-23T16:23:46;19.10;99.90
30186;DHT22;31152;49.190;8.122;2022-10-23T16:26:14;19.00;99.90
30186;DHT22;31152;49.190;8.122;2022-10-23T16:28:41;19.00;99.90
30186;DHT22;31152;49.190;8.122;2022-10-23T16:31:17;19.00;99.90
30186;DHT22;31152;49.190;8.122;2022-10-23T16:33:46;18.90;99.90
30186;DHT22;31152;49.190;8.122;2022-10-23T16:36:14;18.80;99.90
30186;DHT22;31152;49.190;8.122;2022-10-23T16:38:40;18.70;99.90
30186;DHT22;31152;49.190;8.122;2022-10-23T16:41:07;18.70;99.90
30186;DHT22;31152;49.190;8.122;2022-10-23T16:43:34;18.60;99.90
30186;DHT22;31152;49.190;8.122;2022-10-23T16:48:28;18.40;99.90
30186;DHT22;31152;49.190;8.122;2022-10-23T16:50:55;18.30;99.90
30186;DHT22;31152;49.190;8.122;2022-10-23T16:53:22;18.30;99.90
30186;DHT22;31152;49.190;8.122;2022-10-23T16:55:55;18.20;99.90
30186;DHT22;31152;49.190;8.122;2022-10-23T16:58:23;18.10;99.90
30186;DHT22;31152;49.190;8.122;2022-10-23T17:01:03;18.10;99.90
30186;DHT22;31152;49.190;8.122;2022-10-23T17:03:41;18.00;99.90
30186;DHT22;31152;49.190;8.122;2022-10-23T17:06:11;18.00;99.90
30186;DHT22;31152;49.190;8.122;2022-10-23T17:08:40;17.90;99.90
30186;DHT22;31152;49.190;8.122;2022-10-23T17:11:22;17.80;99.90
30186;DHT22;31152;49.190;8.122;2022-10-23T17:13:51;17.80;99.90
30186;DHT22;31152;49.190;8.122;2022-10-23T17:16:48;17.70;99.90
30186;DHT22;31152;49.190;8.122;2022-10-23T17:19:18;17.60;99.90
30186;DHT22;31152;49.190;8.122;2022-10-23T17:22:06;17.60;99.90
30186;DHT22;31152;49.190;8.122;2022-10-23T17:24:38;17.40;99.90
30186;DHT22;31152;49.190;8.122;2022-10-23T17:27:06;17.40;99.90
30186;DHT22;31152;49.190;8.122;2022-10-23T17:29:32;17.30;99.90
30186;DHT22;31152;49.190;8.122;2022-10-23T17:32:00;17.30;99.90
30186;DHT22;31152;49.190;8.122;2022-10-23T17:34:26;17.30;99.90
30186;DHT22;31152;49.190;8.122;2022-10-23T17:36:54;17.30;99.90
30186;DHT22;31152;49.190;8.122;2022-10-23T17:39:26;17.30;99.90
30186;DHT22;31152;49.190;8.122;2022-10-23T17:41:54;17.40;99.90
30186;DHT22;31152;49.190;8.122;2022-10-23T17:44:21;17.30;99.90
30186;DHT22;31152;49.190;8.122;2022-10-23T17:46:50;17.20;99.90
30186;DHT22;31152;49.190;8.122;2022-10-23T17:49:22;17.20;99.90
30186;DHT22;31152;49.190;8.122;2022-10-23T17:51:53;17.20;99.90
30186;DHT22;31152;49.190;8.122;2022-10-23T17:54:20;17.10;99.90
30186;DHT22;31152;49.190;8.122;2022-10-23T17:56:48;17.10;99.90